sensor_id;sensor_type;location;lat;lon;timestamp;P1;durP1;ratioP1;P2;durP2;ratioP2
76865;SDS011;66647;52.124;5.416;2023-03-01T00:03:47;6.10;;;2.15;;
76865;SDS011;66647;52.124;5.416;2023-03-01T00:06:14;9.05;;;2.30;;
76865;SDS011;66647;52.124;5.416;2023-03-01T00:08:43;7.50;;;2.50;;
76865;SDS011;66647;52.124;5.416;2023-03-01T00:11:15;7.90;;;2.60;;
76865;SDS011;66647;52.124;5.416;2023-03-01T00:13:43;9.98;;;2.17;;
76865;SDS011;66647;52.124;5.416;2023-03-01T00:16:15;9.82;;;3.25;;
76865;SDS011;66647;52.124;5.416;2023-03-01T00:18:43;5.80;;;2.85;;
76865;SDS011;66647;52.124;5.416;2023-03-01T00:21:10;10.07;;;3.00;;
76865;SDS011;66647;52.124;5.416;2023-03-01T00:23:38;8.95;;;2.75;;
76865;SDS011;66647;52.124;5.416;2023-03-01T00:26:08;7.10;;;2.08;;
76865;SDS011;66647;52.124;5.416;2023-03-01T00:28:39;6.65;;;2.10;;
76865;SDS011;66647;52.124;5.416;2023-03-01T00:31:07;6.82;;;2.40;;
76865;SDS011;66647;52.124;5.416;2023-03-01T00:33:37;8.43;;;2.45;;
76865;SDS011;66647;52.124;5.416;2023-03-01T00:36:04;7.15;;;2.72;;
76865;SDS011;66647;52.124;5.416;2023-03-01T00:38:34;7.88;;;2.75;;
76865;SDS011;66647;52.124;5.416;2023-03-01T00:41:06;9.30;;;2.28;;
76865;SDS011;66647;52.124;5.416;2023-03-01T00:43:34;7.38;;;3.15;;
76865;SDS011;66647;52.124;5.416;2023-03-01T00:46:05;7.82;;;2.88;;
76865;SDS011;66647;52.124;5.416;2023-03-01T00:48:36;8.30;;;2.63;;
76865;SDS011;66647;52.124;5.416;2023-03-01T00:51:07;7.90;;;2.97;;
76865;SDS011;66647;52.124;5.416;2023-03-01T00:53:36;8.73;;;3.75;;
76865;SDS011;66647;52.124;5.416;2023-03-01T00:56:04;9.43;;;3.22;;
76865;SDS011;66647;52.124;5.416;2023-03-01T00:58:31;9.50;;;3.28;;
76865;SDS011;66647;52.124;5.416;2023-03-01T01:00:59;8.95;;;2.90;;
76865;SDS011;66647;52.124;5.416;2023-03-01T01:03:26;9.13;;;3.95;;
76865;SDS011;66647;52.124;5.416;2023-03-01T01:05:53;14.75;;;3.75;;
76865;SDS011;66647;52.124;5.416;2023-03-01T01:08:20;8.52;;;3.60;;
76865;SDS011;66647;52.124;5.416;2023-03-01T01:10:50;7.07;;;2.53;;
76865;SDS011;66647;52.124;5.416;2023-03-01T01:13:16;6.65;;;2.78;;
76865;SDS011;66647;52.124;5.416;2023-03-01T01:15:43;6.82;;;3.15;;
76865;SDS011;66647;52.124;5.416;2023-03-01T01:18:09;9.05;;;2.95;;
76865;SDS011;66647;52.124;5.416;2023-03-01T01:20:36;7.53;;;2.80;;
76865;SDS011;66647;52.124;5.416;2023-03-01T01:23:04;6.57;;;2.53;;
76865;SDS011;66647;52.124;5.416;2023-03-01T01:25:34;8.68;;;2.83;;
76865;SDS011;66647;52.124;5.416;2023-03-01T01:28:04;7.18;;;3.10;;
76865;SDS011;66647;52.124;5.416;2023-03-01T01:30:31;8.57;;;3.25;;
76865;SDS011;66647;52.124;5.416;2023-03-01T01:32:57;7.45;;;3.15;;
76865;SDS011;66647;52.124;5.416;2023-03-01T01:35:24;10.10;;;4.68;;
76865;SDS011;66647;52.124;5.416;2023-03-01T01:37:51;6.97;;;3.10;;
76865;SDS011;66647;52.124;5.416;2023-03-01T01:40:17;7.97;;;2.60;;
76865;SDS011;66647;52.124;5.416;2023-03-01T01:42:44;6.93;;;2.80;;
76865;SDS011;66647;52.124;5.416;2023-03-01T01:48:02;11.75;;;2.40;;
76865;SDS011;66647;52.124;5.416;2023-03-01T01:50:31;7.07;;;2.67;;
76865;SDS011;66647;52.124;5.416;2023-03-01T01:53:05;10.27;;;4.20;;
76865;SDS011;66647;52.124;5.416;2023-03-01T01:55:36;6.53;;;2.13;;
76865;SDS011;66647;52.124;5.416;2023-03-01T01:58:05;12.63;;;4.00;;
76865;SDS011;66647;52.124;5.416;2023-03-01T02:00:34;7.78;;;3.25;;
76865;SDS011;66647;52.124;5.416;2023-03-01T02:03:04;8.93;;;3.22;;
76865;SDS011;66647;52.124;5.416;2023-03-01T02:05:38;9.25;;;3.25;;
76865;SDS011;66647;52.124;5.416;2023-03-01T02:08:28;6.03;;;2.20;;
76865;SDS011;66647;52.124;5.416;2023-03-01T02:13:30;8.38;;;1.75;;
76865;SDS011;66647;52.124;5.416;2023-03-01T02:18:30;5.30;;;2.33;;
76865;SDS011;66647;52.124;5.416;2023-03-01T02:21:04;6.70;;;2.10;;
76865;SDS011;66647;52.124;5.416;2023-03-01T02:23:40;8.50;;;2.40;;
76865;SDS011;66647;52.124;5.416;2023-03-01T02:28:50;6.20;;;2.10;;
76865;SDS011;66647;52.124;5.416;2023-03-01T02:31:18;7.07;;;3.03;;
76865;SDS011;66647;52.124;5.416;2023-03-01T02:34:05;5.45;;;2.35;;
76865;SDS011;66647;52.124;5.416;2023-03-01T02:36:35;6.15;;;2.15;;
76865;SDS011;66647;52.124;5.416;2023-03-01T02:39:04;6.40;;;2.33;;
76865;SDS011;66647;52.124;5.416;2023-03-01T02:41:36;5.97;;;1.90;;
76865;SDS011;66647;52.124;5.416;2023-03-01T02:44:04;6.60;;;2.63;;
76865;SDS011;66647;52.124;5.416;2023-03-01T02:46:31;8.80;;;3.85;;
76865;SDS011;66647;52.124;5.416;2023-03-01T02:48:59;6.63;;;2.55;;
76865;SDS011;66647;52.124;5.416;2023-03-01T02:56:47;6.00;;;2.15;;
76865;SDS011;66647;52.124;5.416;2023-03-01T02:59:18;9.45;;;3.30;;
76865;SDS011;66647;52.124;5.416;2023-03-01T03:01:47;7.28;;;2.28;;
76865;SDS011;66647;52.124;5.416;2023-03-01T03:04:16;7.63;;;2.40;;
76865;SDS011;66647;52.124;5.416;2023-03-01T03:06:47;7.13;;;2.63;;
76865;SDS011;66647;52.124;5.416;2023-03-01T03:09:16;7.05;;;2.15;;
76865;SDS011;66647;52.124;5.416;2023-03-01T03:11:50;7.60;;;2.42;;
76865;SDS011;66647;52.124;5.416;2023-03-01T03:14:17;6.65;;;2.67;;
76865;SDS011;66647;52.124;5.416;2023-03-01T03:16:47;6.85;;;2.10;;
76865;SDS011;66647;52.124;5.416;2023-03-01T03:19:16;8.55;;;3.67;;
76865;SDS011;66647;52.124;5.416;2023-03-01T03:21:43;10.18;;;3.80;;
76865;SDS011;66647;52.124;5.416;2023-03-01T03:24:10;7.47;;;2.60;;
76865;SDS011;66647;52.124;5.416;2023-03-01T03:26:37;12.70;;;3.67;;
76865;SDS011;66647;52.124;5.416;2023-03-01T03:29:03;6.90;;;2.63;;
76865;SDS011;66647;52.124;5.416;2023-03-01T03:31:30;10.15;;;2.83;;
76865;SDS011;66647;52.124;5.416;2023-03-01T03:33:57;7.82;;;3.13;;
76865;SDS011;66647;52.124;5.416;2023-03-01T03:36:25;10.43;;;3.83;;
76865;SDS011;66647;52.124;5.416;2023-03-01T03:38:52;6.95;;;3.25;;
76865;SDS011;66647;52.124;5.416;2023-03-01T03:41:18;8.55;;;3.17;;
76865;SDS011;66647;52.124;5.416;2023-03-01T03:43:45;8.45;;;3.17;;
76865;SDS011;66647;52.124;5.416;2023-03-01T03:46:12;10.27;;;3.20;;
76865;SDS011;66647;52.124;5.416;2023-03-01T03:48:40;9.70;;;3.60;;
76865;SDS011;66647;52.124;5.416;2023-03-01T03:51:10;7.32;;;3.03;;
76865;SDS011;66647;52.124;5.416;2023-03-01T03:53:39;14.52;;;4.53;;
76865;SDS011;66647;52.124;5.416;2023-03-01T03:56:05;7.38;;;2.85;;
76865;SDS011;66647;52.124;5.416;2023-03-01T03:58:32;9.85;;;3.45;;
76865;SDS011;66647;52.124;5.416;2023-03-01T04:01:02;7.85;;;2.67;;
76865;SDS011;66647;52.124;5.416;2023-03-01T04:03:29;6.90;;;2.83;;
76865;SDS011;66647;52.124;5.416;2023-03-01T04:05:59;11.20;;;3.03;;
76865;SDS011;66647;52.124;5.416;2023-03-01T04:08:32;8.20;;;2.80;;
76865;SDS011;66647;52.124;5.416;2023-03-01T04:13:55;5.82;;;1.77;;
76865;SDS011;66647;52.124;5.416;2023-03-01T04:16:27;5.50;;;2.35;;
76865;SDS011;66647;52.124;5.416;2023-03-01T04:18:55;8.73;;;3.03;;
76865;SDS011;66647;52.124;5.416;2023-03-01T04:21:21;9.15;;;3.72;;
76865;SDS011;66647;52.124;5.416;2023-03-01T04:23:48;6.45;;;1.85;;
76865;SDS011;66647;52.124;5.416;2023-03-01T04:26:19;6.07;;;2.63;;
76865;SDS011;66647;52.124;5.416;2023-03-01T04:28:46;11.98;;;3.25;;
76865;SDS011;66647;52.124;5.416;2023-03-01T04:31:16;6.35;;;2.47;;
76865;SDS011;66647;52.124;5.416;2023-03-01T04:33:45;7.97;;;2.75;;
76865;SDS011;66647;52.124;5.416;2023-03-01T04:36:13;9.82;;;3.00;;
76865;SDS011;66647;52.124;5.416;2023-03-01T04:38:41;8.35;;;2.20;;
76865;SDS011;66647;52.124;5.416;2023-03-01T04:41:15;6.68;;;2.63;;
76865;SDS011;66647;52.124;5.416;2023-03-01T04:43:43;8.02;;;3.38;;
76865;SDS011;66647;52.124;5.416;2023-03-01T04:46:11;5.95;;;2.13;;
76865;SDS011;66647;52.124;5.416;2023-03-01T04:48:41;4.65;;;1.80;;
76865;SDS011;66647;52.124;5.416;2023-03-01T04:51:09;7.28;;;2.60;;
76865;SDS011;66647;52.124;5.416;2023-03-01T04:53:40;8.00;;;2.45;;
76865;SDS011;66647;52.124;5.416;2023-03-01T04:56:50;4.32;;;1.80;;
76865;SDS011;66647;52.124;5.416;2023-03-01T04:59:55;6.38;;;2.20;;
76865;SDS011;66647;52.124;5.416;2023-03-01T05:05:15;4.95;;;2.05;;
76865;SDS011;66647;52.124;5.416;2023-03-01T05:07:42;9.00;;;2.22;;
76865;SDS011;66647;52.124;5.416;2023-03-01T05:10:08;5.57;;;1.83;;
76865;SDS011;66647;52.124;5.416;2023-03-01T05:12:35;7.80;;;3.05;;
76865;SDS011;66647;52.124;5.416;2023-03-01T05:15:04;7.63;;;2.83;;
76865;SDS011;66647;52.124;5.416;2023-03-01T05:17:33;8.30;;;2.42;;
76865;SDS011;66647;52.124;5.416;2023-03-01T05:20:00;7.20;;;2.67;;
76865;SDS011;66647;52.124;5.416;2023-03-01T05:22:27;7.07;;;2.90;;
76865;SDS011;66647;52.124;5.416;2023-03-01T05:24:54;5.93;;;2.15;;
76865;SDS011;66647;52.124;5.416;2023-03-01T05:27:21;8.13;;;2.75;;
76865;SDS011;66647;52.124;5.416;2023-03-01T05:29:48;7.13;;;2.55;;
76865;SDS011;66647;52.124;5.416;2023-03-01T05:32:15;11.65;;;2.78;;
76865;SDS011;66647;52.124;5.416;2023-03-01T05:34:42;7.93;;;2.03;;
76865;SDS011;66647;52.124;5.416;2023-03-01T05:37:08;4.70;;;2.05;;
76865;SDS011;66647;52.124;5.416;2023-03-01T05:39:35;8.95;;;2.83;;
76865;SDS011;66647;52.124;5.416;2023-03-01T05:42:02;10.65;;;3.22;;
76865;SDS011;66647;52.124;5.416;2023-03-01T05:44:29;7.47;;;2.30;;
76865;SDS011;66647;52.124;5.416;2023-03-01T05:46:56;6.43;;;2.40;;
76865;SDS011;66647;52.124;5.416;2023-03-01T05:49:23;6.38;;;2.47;;
76865;SDS011;66647;52.124;5.416;2023-03-01T05:51:51;7.38;;;2.35;;
76865;SDS011;66647;52.124;5.416;2023-03-01T05:54:20;5.72;;;2.47;;
76865;SDS011;66647;52.124;5.416;2023-03-01T05:56:47;7.05;;;3.53;;
76865;SDS011;66647;52.124;5.416;2023-03-01T05:59:15;7.80;;;2.97;;
76865;SDS011;66647;52.124;5.416;2023-03-01T06:01:42;8.45;;;2.85;;
76865;SDS011;66647;52.124;5.416;2023-03-01T06:04:09;9.45;;;2.97;;
76865;SDS011;66647;52.124;5.416;2023-03-01T06:06:36;7.50;;;2.53;;
76865;SDS011;66647;52.124;5.416;2023-03-01T06:09:06;9.15;;;3.22;;
76865;SDS011;66647;52.124;5.416;2023-03-01T06:11:34;6.35;;;3.10;;
76865;SDS011;66647;52.124;5.416;2023-03-01T06:14:01;7.30;;;2.17;;
76865;SDS011;66647;52.124;5.416;2023-03-01T06:16:28;11.77;;;3.50;;
76865;SDS011;66647;52.124;5.416;2023-03-01T06:18:55;8.57;;;3.63;;
76865;SDS011;66647;52.124;5.416;2023-03-01T06:21:21;11.68;;;4.28;;
76865;SDS011;66647;52.124;5.416;2023-03-01T06:23:48;6.30;;;2.72;;
76865;SDS011;66647;52.124;5.416;2023-03-01T06:26:18;6.32;;;2.35;;
76865;SDS011;66647;52.124;5.416;2023-03-01T06:28:48;8.55;;;3.58;;
76865;SDS011;66647;52.124;5.416;2023-03-01T06:31:17;9.50;;;2.53;;
76865;SDS011;66647;52.124;5.416;2023-03-01T06:33:44;6.38;;;3.33;;
76865;SDS011;66647;52.124;5.416;2023-03-01T06:36:10;7.55;;;3.22;;
76865;SDS011;66647;52.124;5.416;2023-03-01T06:38:37;8.07;;;1.80;;
76865;SDS011;66647;52.124;5.416;2023-03-01T06:41:03;8.10;;;3.05;;
76865;SDS011;66647;52.124;5.416;2023-03-01T06:43:30;9.68;;;3.70;;
76865;SDS011;66647;52.124;5.416;2023-03-01T06:45:57;6.75;;;2.20;;
76865;SDS011;66647;52.124;5.416;2023-03-01T06:48:23;5.70;;;2.22;;
76865;SDS011;66647;52.124;5.416;2023-03-01T06:50:51;7.13;;;3.33;;
76865;SDS011;66647;52.124;5.416;2023-03-01T06:53:18;8.88;;;3.05;;
76865;SDS011;66647;52.124;5.416;2023-03-01T06:55:44;6.00;;;2.50;;
76865;SDS011;66647;52.124;5.416;2023-03-01T06:58:11;8.98;;;2.75;;
76865;SDS011;66647;52.124;5.416;2023-03-01T07:00:37;10.38;;;2.75;;
76865;SDS011;66647;52.124;5.416;2023-03-01T07:03:07;7.65;;;2.65;;
76865;SDS011;66647;52.124;5.416;2023-03-01T07:05:35;7.95;;;3.25;;
76865;SDS011;66647;52.124;5.416;2023-03-01T07:08:02;9.55;;;2.95;;
76865;SDS011;66647;52.124;5.416;2023-03-01T07:10:28;8.35;;;3.17;;
76865;SDS011;66647;52.124;5.416;2023-03-01T07:12:56;8.27;;;3.10;;
76865;SDS011;66647;52.124;5.416;2023-03-01T07:15:24;6.05;;;2.65;;
76865;SDS011;66647;52.124;5.416;2023-03-01T07:17:52;8.98;;;3.75;;
76865;SDS011;66647;52.124;5.416;2023-03-01T07:20:19;7.75;;;3.08;;
76865;SDS011;66647;52.124;5.416;2023-03-01T07:22:51;10.73;;;3.25;;
76865;SDS011;66647;52.124;5.416;2023-03-01T07:25:19;8.80;;;2.88;;
76865;SDS011;66647;52.124;5.416;2023-03-01T07:27:49;8.57;;;3.83;;
76865;SDS011;66647;52.124;5.416;2023-03-01T07:30:17;9.63;;;3.60;;
76865;SDS011;66647;52.124;5.416;2023-03-01T07:32:44;8.13;;;3.40;;
76865;SDS011;66647;52.124;5.416;2023-03-01T07:35:14;8.52;;;4.03;;
76865;SDS011;66647;52.124;5.416;2023-03-01T07:37:41;10.13;;;4.63;;
76865;SDS011;66647;52.124;5.416;2023-03-01T07:40:08;11.32;;;5.03;;
76865;SDS011;66647;52.124;5.416;2023-03-01T07:42:35;11.13;;;4.85;;
76865;SDS011;66647;52.124;5.416;2023-03-01T07:45:02;11.02;;;5.13;;
76865;SDS011;66647;52.124;5.416;2023-03-01T07:47:31;11.70;;;4.85;;
76865;SDS011;66647;52.124;5.416;2023-03-01T07:49:58;11.80;;;4.95;;
76865;SDS011;66647;52.124;5.416;2023-03-01T07:52:25;11.15;;;5.70;;
76865;SDS011;66647;52.124;5.416;2023-03-01T07:54:52;11.27;;;5.20;;
76865;SDS011;66647;52.124;5.416;2023-03-01T07:57:19;12.48;;;5.70;;
76865;SDS011;66647;52.124;5.416;2023-03-01T07:59:49;12.27;;;6.30;;
76865;SDS011;66647;52.124;5.416;2023-03-01T08:02:18;11.43;;;5.88;;
76865;SDS011;66647;52.124;5.416;2023-03-01T08:04:45;15.32;;;6.93;;
76865;SDS011;66647;52.124;5.416;2023-03-01T08:07:11;13.25;;;6.05;;
76865;SDS011;66647;52.124;5.416;2023-03-01T08:09:38;13.27;;;7.03;;
76865;SDS011;66647;52.124;5.416;2023-03-01T08:12:04;13.00;;;5.85;;
76865;SDS011;66647;52.124;5.416;2023-03-01T08:14:32;12.70;;;6.30;;
76865;SDS011;66647;52.124;5.416;2023-03-01T08:17:01;10.77;;;5.35;;
76865;SDS011;66647;52.124;5.416;2023-03-01T08:19:29;8.55;;;4.55;;
76865;SDS011;66647;52.124;5.416;2023-03-01T08:21:56;12.13;;;5.18;;
76865;SDS011;66647;52.124;5.416;2023-03-01T08:24:24;9.90;;;4.90;;
76865;SDS011;66647;52.124;5.416;2023-03-01T08:26:50;8.63;;;4.45;;
76865;SDS011;66647;52.124;5.416;2023-03-01T08:29:17;8.55;;;3.88;;
76865;SDS011;66647;52.124;5.416;2023-03-01T08:31:44;8.90;;;4.57;;
76865;SDS011;66647;52.124;5.416;2023-03-01T08:34:12;7.50;;;4.20;;
76865;SDS011;66647;52.124;5.416;2023-03-01T08:36:43;8.27;;;4.00;;
76865;SDS011;66647;52.124;5.416;2023-03-01T08:39:12;6.88;;;3.80;;
76865;SDS011;66647;52.124;5.416;2023-03-01T08:41:41;7.20;;;3.65;;
76865;SDS011;66647;52.124;5.416;2023-03-01T08:44:09;7.25;;;4.25;;
76865;SDS011;66647;52.124;5.416;2023-03-01T08:46:38;6.45;;;3.53;;
76865;SDS011;66647;52.124;5.416;2023-03-01T08:49:13;8.00;;;4.43;;
76865;SDS011;66647;52.124;5.416;2023-03-01T08:51:41;8.75;;;4.43;;
76865;SDS011;66647;52.124;5.416;2023-03-01T08:54:13;9.45;;;4.18;;
76865;SDS011;66647;52.124;5.416;2023-03-01T08:56:41;8.88;;;4.00;;
76865;SDS011;66647;52.124;5.416;2023-03-01T08:59:09;6.68;;;3.70;;
76865;SDS011;66647;52.124;5.416;2023-03-01T09:01:37;6.82;;;3.70;;
76865;SDS011;66647;52.124;5.416;2023-03-01T09:04:04;6.40;;;3.15;;
76865;SDS011;66647;52.124;5.416;2023-03-01T09:06:31;7.63;;;3.70;;
76865;SDS011;66647;52.124;5.416;2023-03-01T09:08:59;7.65;;;3.50;;
76865;SDS011;66647;52.124;5.416;2023-03-01T09:11:27;7.57;;;3.30;;
76865;SDS011;66647;52.124;5.416;2023-03-01T09:13:54;5.97;;;3.50;;
76865;SDS011;66647;52.124;5.416;2023-03-01T09:16:22;6.60;;;3.45;;
76865;SDS011;66647;52.124;5.416;2023-03-01T09:18:52;6.30;;;3.45;;
76865;SDS011;66647;52.124;5.416;2023-03-01T09:21:21;4.95;;;3.28;;
76865;SDS011;66647;52.124;5.416;2023-03-01T09:24:04;6.03;;;3.03;;
76865;SDS011;66647;52.124;5.416;2023-03-01T09:26:32;6.38;;;3.03;;
76865;SDS011;66647;52.124;5.416;2023-03-01T09:29:05;5.60;;;3.10;;
76865;SDS011;66647;52.124;5.416;2023-03-01T09:31:38;7.15;;;2.95;;
76865;SDS011;66647;52.124;5.416;2023-03-01T09:34:05;6.97;;;2.50;;
76865;SDS011;66647;52.124;5.416;2023-03-01T09:36:32;5.38;;;2.75;;
76865;SDS011;66647;52.124;5.416;2023-03-01T09:39:00;7.18;;;1.60;;
76865;SDS011;66647;52.124;5.416;2023-03-01T09:44:46;4.28;;;1.85;;
76865;SDS011;66647;52.124;5.416;2023-03-01T09:50:06;6.30;;;2.13;;
76865;SDS011;66647;52.124;5.416;2023-03-01T09:55:08;4.68;;;2.22;;
76865;SDS011;66647;52.124;5.416;2023-03-01T09:57:48;5.05;;;1.67;;
76865;SDS011;66647;52.124;5.416;2023-03-01T10:03:03;4.00;;;1.52;;
76865;SDS011;66647;52.124;5.416;2023-03-01T10:05:49;3.22;;;1.27;;
76865;SDS011;66647;52.124;5.416;2023-03-01T10:08:24;4.95;;;1.10;;
76865;SDS011;66647;52.124;5.416;2023-03-01T10:10:51;3.30;;;0.98;;
76865;SDS011;66647;52.124;5.416;2023-03-01T10:13:21;3.60;;;1.05;;
76865;SDS011;66647;52.124;5.416;2023-03-01T10:15:55;4.50;;;0.98;;
76865;SDS011;66647;52.124;5.416;2023-03-01T10:18:26;5.15;;;1.00;;
76865;SDS011;66647;52.124;5.416;2023-03-01T10:21:12;5.57;;;1.60;;
76865;SDS011;66647;52.124;5.416;2023-03-01T10:23:46;3.40;;;1.40;;
76865;SDS011;66647;52.124;5.416;2023-03-01T10:31:43;5.38;;;2.35;;
76865;SDS011;66647;52.124;5.416;2023-03-01T10:34:17;4.88;;;1.75;;
76865;SDS011;66647;52.124;5.416;2023-03-01T10:39:27;3.42;;;1.42;;
76865;SDS011;66647;52.124;5.416;2023-03-01T10:42:05;5.88;;;1.50;;
76865;SDS011;66647;52.124;5.416;2023-03-01T10:44:47;3.72;;;1.50;;
76865;SDS011;66647;52.124;5.416;2023-03-01T10:47:19;2.78;;;0.85;;
76865;SDS011;66647;52.124;5.416;2023-03-01T10:49:56;3.65;;;0.95;;
76865;SDS011;66647;52.124;5.416;2023-03-01T10:52:36;3.03;;;0.88;;
76865;SDS011;66647;52.124;5.416;2023-03-01T10:57:39;3.50;;;0.80;;
76865;SDS011;66647;52.124;5.416;2023-03-01T11:00:18;3.40;;;1.55;;
76865;SDS011;66647;52.124;5.416;2023-03-01T11:05:25;2.90;;;0.98;;
76865;SDS011;66647;52.124;5.416;2023-03-01T11:07:55;3.78;;;1.15;;
76865;SDS011;66647;52.124;5.416;2023-03-01T11:10:31;3.55;;;1.00;;
76865;SDS011;66647;52.124;5.416;2023-03-01T11:13:16;4.65;;;0.50;;
76865;SDS011;66647;52.124;5.416;2023-03-01T11:15:58;3.53;;;1.02;;
76865;SDS011;66647;52.124;5.416;2023-03-01T11:18:30;4.65;;;0.98;;
76865;SDS011;66647;52.124;5.416;2023-03-01T11:21:12;3.30;;;0.80;;
76865;SDS011;66647;52.124;5.416;2023-03-01T11:23:39;3.50;;;0.63;;
76865;SDS011;66647;52.124;5.416;2023-03-01T11:26:08;3.55;;;1.00;;
76865;SDS011;66647;52.124;5.416;2023-03-01T11:28:38;2.40;;;1.05;;
76865;SDS011;66647;52.124;5.416;2023-03-01T11:31:09;3.28;;;1.00;;
76865;SDS011;66647;52.124;5.416;2023-03-01T11:38:53;2.30;;;0.75;;
76865;SDS011;66647;52.124;5.416;2023-03-01T11:41:25;2.38;;;0.47;;
76865;SDS011;66647;52.124;5.416;2023-03-01T11:43:56;4.07;;;0.80;;
76865;SDS011;66647;52.124;5.416;2023-03-01T11:49:57;2.78;;;0.63;;
76865;SDS011;66647;52.124;5.416;2023-03-01T11:55:17;3.03;;;0.60;;
76865;SDS011;66647;52.124;5.416;2023-03-01T12:00:58;4.07;;;1.73;;
76865;SDS011;66647;52.124;5.416;2023-03-01T12:09:31;3.30;;;0.70;;
76865;SDS011;66647;52.124;5.416;2023-03-01T12:12:11;5.25;;;1.48;;
76865;SDS011;66647;52.124;5.416;2023-03-01T12:20:44;4.25;;;0.93;;
76865;SDS011;66647;52.124;5.416;2023-03-01T12:23:39;5.20;;;1.13;;
76865;SDS011;66647;52.124;5.416;2023-03-01T12:45:29;4.25;;;1.02;;
76865;SDS011;66647;52.124;5.416;2023-03-01T12:50:41;4.38;;;1.10;;
76865;SDS011;66647;52.124;5.416;2023-03-01T13:17:51;3.42;;;0.65;;
76865;SDS011;66647;52.124;5.416;2023-03-01T13:20:20;3.55;;;0.65;;
76865;SDS011;66647;52.124;5.416;2023-03-01T13:23:00;3.75;;;0.93;;
76865;SDS011;66647;52.124;5.416;2023-03-01T13:25:29;5.50;;;1.58;;
76865;SDS011;66647;52.124;5.416;2023-03-01T13:31:55;3.97;;;0.98;;
76865;SDS011;66647;52.124;5.416;2023-03-01T13:33:58;4.18;;;0.88;;
76865;SDS011;66647;52.124;5.416;2023-03-01T13:38:57;3.78;;;1.08;;
76865;SDS011;66647;52.124;5.416;2023-03-01T13:44:13;5.18;;;0.98;;
76865;SDS011;66647;52.124;5.416;2023-03-01T13:49:48;2.78;;;1.08;;
76865;SDS011;66647;52.124;5.416;2023-03-01T13:55:16;4.05;;;1.00;;
76865;SDS011;66647;52.124;5.416;2023-03-01T13:57:47;3.15;;;0.75;;
76865;SDS011;66647;52.124;5.416;2023-03-01T14:00:30;4.05;;;0.65;;
76865;SDS011;66647;52.124;5.416;2023-03-01T14:03:01;3.38;;;0.75;;
76865;SDS011;66647;52.124;5.416;2023-03-01T14:05:34;2.90;;;0.82;;
76865;SDS011;66647;52.124;5.416;2023-03-01T14:08:03;3.03;;;0.70;;
76865;SDS011;66647;52.124;5.416;2023-03-01T14:10:32;3.80;;;0.95;;
76865;SDS011;66647;52.124;5.416;2023-03-01T14:13:17;5.03;;;1.33;;
76865;SDS011;66647;52.124;5.416;2023-03-01T14:16:05;4.03;;;0.95;;
76865;SDS011;66647;52.124;5.416;2023-03-01T14:18:59;3.92;;;0.50;;
76865;SDS011;66647;52.124;5.416;2023-03-01T14:21:39;3.92;;;1.38;;
76865;SDS011;66647;52.124;5.416;2023-03-01T14:24:06;2.95;;;0.55;;
76865;SDS011;66647;52.124;5.416;2023-03-01T14:26:43;5.60;;;1.83;;
76865;SDS011;66647;52.124;5.416;2023-03-01T14:29:26;5.35;;;1.33;;
76865;SDS011;66647;52.124;5.416;2023-03-01T14:32:21;3.92;;;0.80;;
76865;SDS011;66647;52.124;5.416;2023-03-01T14:34:50;4.78;;;0.82;;
76865;SDS011;66647;52.124;5.416;2023-03-01T14:37:22;3.58;;;0.75;;
76865;SDS011;66647;52.124;5.416;2023-03-01T14:39:54;3.20;;;0.75;;
76865;SDS011;66647;52.124;5.416;2023-03-01T14:42:22;4.90;;;1.17;;
76865;SDS011;66647;52.124;5.416;2023-03-01T14:44:53;4.78;;;1.40;;
76865;SDS011;66647;52.124;5.416;2023-03-01T14:47:39;3.72;;;1.08;;
76865;SDS011;66647;52.124;5.416;2023-03-01T14:50:15;3.83;;;0.73;;
76865;SDS011;66647;52.124;5.416;2023-03-01T14:52:50;3.88;;;0.77;;
76865;SDS011;66647;52.124;5.416;2023-03-01T14:55:30;3.80;;;1.23;;
76865;SDS011;66647;52.124;5.416;2023-03-01T14:58:02;6.07;;;0.77;;
76865;SDS011;66647;52.124;5.416;2023-03-01T15:00:30;2.65;;;0.63;;
76865;SDS011;66647;52.124;5.416;2023-03-01T15:03:05;4.40;;;0.80;;
76865;SDS011;66647;52.124;5.416;2023-03-01T15:05:39;4.88;;;0.88;;
76865;SDS011;66647;52.124;5.416;2023-03-01T15:08:08;4.22;;;1.20;;
76865;SDS011;66647;52.124;5.416;2023-03-01T15:13:23;5.55;;;0.93;;
76865;SDS011;66647;52.124;5.416;2023-03-01T15:15:51;3.90;;;0.93;;
76865;SDS011;66647;52.124;5.416;2023-03-01T15:18:27;4.13;;;0.80;;
76865;SDS011;66647;52.124;5.416;2023-03-01T15:21:05;4.00;;;0.73;;
76865;SDS011;66647;52.124;5.416;2023-03-01T15:23:36;4.82;;;1.17;;
76865;SDS011;66647;52.124;5.416;2023-03-01T15:26:06;4.88;;;1.05;;
76865;SDS011;66647;52.124;5.416;2023-03-01T15:28:33;4.45;;;1.40;;
76865;SDS011;66647;52.124;5.416;2023-03-01T15:31:19;3.50;;;1.70;;
76865;SDS011;66647;52.124;5.416;2023-03-01T15:36:30;5.25;;;0.82;;
76865;SDS011;66647;52.124;5.416;2023-03-01T15:38:59;6.00;;;1.40;;
76865;SDS011;66647;52.124;5.416;2023-03-01T15:41:49;4.72;;;0.95;;
76865;SDS011;66647;52.124;5.416;2023-03-01T15:47:25;5.93;;;0.85;;
76865;SDS011;66647;52.124;5.416;2023-03-01T15:50:26;3.47;;;1.23;;
76865;SDS011;66647;52.124;5.416;2023-03-01T15:53:13;7.15;;;0.95;;
76865;SDS011;66647;52.124;5.416;2023-03-01T15:55:42;4.13;;;1.33;;
76865;SDS011;66647;52.124;5.416;2023-03-01T16:00:40;3.80;;;0.73;;
76865;SDS011;66647;52.124;5.416;2023-03-01T16:03:24;2.90;;;0.73;;
76865;SDS011;66647;52.124;5.416;2023-03-01T16:05:51;4.10;;;1.30;;
76865;SDS011;66647;52.124;5.416;2023-03-01T16:08:38;3.83;;;0.75;;
76865;SDS011;66647;52.124;5.416;2023-03-01T16:14:03;4.30;;;1.08;;
76865;SDS011;66647;52.124;5.416;2023-03-01T16:16:43;3.42;;;1.15;;
76865;SDS011;66647;52.124;5.416;2023-03-01T16:19:11;4.97;;;1.00;;
76865;SDS011;66647;52.124;5.416;2023-03-01T16:21:38;5.85;;;2.30;;
76865;SDS011;66647;52.124;5.416;2023-03-01T16:24:04;5.40;;;1.00;;
76865;SDS011;66647;52.124;5.416;2023-03-01T16:26:32;4.65;;;1.45;;
76865;SDS011;66647;52.124;5.416;2023-03-01T16:28:59;4.75;;;1.15;;
76865;SDS011;66647;52.124;5.416;2023-03-01T16:31:28;5.15;;;1.75;;
76865;SDS011;66647;52.124;5.416;2023-03-01T16:33:59;8.70;;;1.25;;
76865;SDS011;66647;52.124;5.416;2023-03-01T16:36:26;4.30;;;1.27;;
76865;SDS011;66647;52.124;5.416;2023-03-01T16:38:59;3.75;;;1.33;;
76865;SDS011;66647;52.124;5.416;2023-03-01T16:41:32;5.15;;;1.02;;
76865;SDS011;66647;52.124;5.416;2023-03-01T16:46:44;5.55;;;1.20;;
76865;SDS011;66647;52.124;5.416;2023-03-01T16:49:18;5.97;;;1.15;;
76865;SDS011;66647;52.124;5.416;2023-03-01T16:51:45;3.70;;;0.45;;
76865;SDS011;66647;52.124;5.416;2023-03-01T16:54:13;4.03;;;1.40;;
76865;SDS011;66647;52.124;5.416;2023-03-01T16:56:42;4.82;;;1.30;;
76865;SDS011;66647;52.124;5.416;2023-03-01T16:59:13;7.40;;;1.75;;
76865;SDS011;66647;52.124;5.416;2023-03-01T17:04:34;5.78;;;1.77;;
76865;SDS011;66647;52.124;5.416;2023-03-01T17:07:00;5.85;;;1.90;;
76865;SDS011;66647;52.124;5.416;2023-03-01T17:09:28;10.65;;;1.13;;
76865;SDS011;66647;52.124;5.416;2023-03-01T17:12:04;4.18;;;1.25;;
76865;SDS011;66647;52.124;5.416;2023-03-01T17:14:31;4.13;;;1.20;;
76865;SDS011;66647;52.124;5.416;2023-03-01T17:16:57;4.43;;;1.30;;
76865;SDS011;66647;52.124;5.416;2023-03-01T17:19:25;3.90;;;0.93;;
76865;SDS011;66647;52.124;5.416;2023-03-01T17:21:51;5.28;;;1.38;;
76865;SDS011;66647;52.124;5.416;2023-03-01T17:24:18;4.97;;;1.13;;
76865;SDS011;66647;52.124;5.416;2023-03-01T17:26:45;4.25;;;1.00;;
76865;SDS011;66647;52.124;5.416;2023-03-01T17:29:12;5.13;;;1.40;;
76865;SDS011;66647;52.124;5.416;2023-03-01T17:31:39;5.72;;;1.48;;
76865;SDS011;66647;52.124;5.416;2023-03-01T17:34:06;5.05;;;1.50;;
76865;SDS011;66647;52.124;5.416;2023-03-01T17:36:33;5.25;;;1.27;;
76865;SDS011;66647;52.124;5.416;2023-03-01T17:39:06;5.40;;;1.48;;
76865;SDS011;66647;52.124;5.416;2023-03-01T17:41:33;5.22;;;1.73;;